sensor_id;sensor_type;location;lat;lon;timestamp;temperature;humidity
48162;DHT22;33950;48.154;16.316;2023-07-20T00:04:51;24.20;74.10
48162;DHT22;33950;48.154;16.316;2023-07-20T00:07:37;24.40;74.00
48162;DHT22;33950;48.154;16.316;2023-07-20T00:10:23;24.40;74.10
48162;DHT22;33950;48.154;16.316;2023-07-20T00:13:09;24.50;74.50
48162;DHT22;33950;48.154;16.316;2023-07-20T00:15:56;24.50;74.10
48162;DHT22;33950;48.154;16.316;2023-07-20T00:18:42;24.40;74.20
48162;DHT22;33950;48.154;16.316;2023-07-20T00:21:28;24.30;73.90
48162;DHT22;33950;48.154;16.316;2023-07-20T00:24:13;24.20;73.20
48162;DHT22;33950;48.154;16.316;2023-07-20T00:26:59;24.20;73.30
48162;DHT22;33950;48.154;16.316;2023-07-20T00:29:46;24.10;73.20
48162;DHT22;33950;48.154;16.316;2023-07-20T00:32:33;24.00;73.20
48162;DHT22;33950;48.154;16.316;2023-07-20T00:35:19;24.10;73.40
48162;DHT22;33950;48.154;16.316;2023-07-20T01:11:22;24.10;73.40
48162;DHT22;33950;48.154;16.316;2023-07-20T01:14:12;24.20;72.60
48162;DHT22;33950;48.154;16.316;2023-07-20T01:16:59;24.30;72.50
48162;DHT22;33950;48.154;16.316;2023-07-20T01:19:45;24.40;72.30
48162;DHT22;33950;48.154;16.316;2023-07-20T01:22:40;24.40;72.40
48162;DHT22;33950;48.154;16.316;2023-07-20T01:25:34;24.40;72.80
48162;DHT22;33950;48.154;16.316;2023-07-20T01:28:35;24.30;72.70
48162;DHT22;33950;48.154;16.316;2023-07-20T01:31:24;24.30;72.30
48162;DHT22;33950;48.154;16.316;2023-07-20T01:34:11;24.30;72.20
48162;DHT22;33950;48.154;16.316;2023-07-20T01:36:58;24.30;72.50
48162;DHT22;33950;48.154;16.316;2023-07-20T01:39:45;24.20;73.50
48162;DHT22;33950;48.154;16.316;2023-07-20T01:42:31;24.10;74.10
48162;DHT22;33950;48.154;16.316;2023-07-20T01:45:17;23.90;75.00
48162;DHT22;33950;48.154;16.316;2023-07-20T01:48:04;23.90;75.00
48162;DHT22;33950;48.154;16.316;2023-07-20T01:50:50;23.90;76.10
48162;DHT22;33950;48.154;16.316;2023-07-20T01:53:36;23.80;76.20
48162;DHT22;33950;48.154;16.316;2023-07-20T01:56:22;23.80;76.30
48162;DHT22;33950;48.154;16.316;2023-07-20T01:59:08;23.70;76.40
48162;DHT22;33950;48.154;16.316;2023-07-20T02:01:54;23.60;76.60
48162;DHT22;33950;48.154;16.316;2023-07-20T02:04:41;23.60;77.30
48162;DHT22;33950;48.154;16.316;2023-07-20T02:07:27;23.60;77.00
48162;DHT22;33950;48.154;16.316;2023-07-20T02:10:13;23.60;76.80
48162;DHT22;33950;48.154;16.316;2023-07-20T02:12:59;23.60;76.80
48162;DHT22;33950;48.154;16.316;2023-07-20T02:15:45;23.70;76.90
48162;DHT22;33950;48.154;16.316;2023-07-20T02:18:32;23.60;76.90
48162;DHT22;33950;48.154;16.316;2023-07-20T02:21:20;23.70;76.70
48162;DHT22;33950;48.154;16.316;2023-07-20T02:24:06;23.60;77.10
48162;DHT22;33950;48.154;16.316;2023-07-20T02:26:52;23.70;76.30
48162;DHT22;33950;48.154;16.316;2023-07-20T02:29:38;23.60;76.10
48162;DHT22;33950;48.154;16.316;2023-07-20T02:32:24;23.70;76.30
48162;DHT22;33950;48.154;16.316;2023-07-20T02:37:58;23.70;76.00
48162;DHT22;33950;48.154;16.316;2023-07-20T02:40:43;23.70;75.80
48162;DHT22;33950;48.154;16.316;2023-07-20T02:43:29;23.70;75.80
48162;DHT22;33950;48.154;16.316;2023-07-20T02:46:15;23.70;76.20
48162;DHT22;33950;48.154;16.316;2023-07-20T02:49:01;23.70;76.60
48162;DHT22;33950;48.154;16.316;2023-07-20T02:51:47;23.60;76.50
48162;DHT22;33950;48.154;16.316;2023-07-20T02:54:34;23.60;77.10
48162;DHT22;33950;48.154;16.316;2023-07-20T02:57:20;23.50;76.80
48162;DHT22;33950;48.154;16.316;2023-07-20T03:00:06;23.50;77.40
48162;DHT22;33950;48.154;16.316;2023-07-20T03:02:53;23.40;77.10
48162;DHT22;33950;48.154;16.316;2023-07-20T03:05:41;23.40;77.40
48162;DHT22;33950;48.154;16.316;2023-07-20T03:08:27;23.20;77.00
48162;DHT22;33950;48.154;16.316;2023-07-20T03:11:14;23.30;77.10
48162;DHT22;33950;48.154;16.316;2023-07-20T03:14:03;23.20;76.80
48162;DHT22;33950;48.154;16.316;2023-07-20T03:16:49;23.10;76.90
48162;DHT22;33950;48.154;16.316;2023-07-20T03:19:35;23.20;77.00
48162;DHT22;33950;48.154;16.316;2023-07-20T03:22:21;23.20;76.70
48162;DHT22;33950;48.154;16.316;2023-07-20T03:25:07;23.10;76.60
48162;DHT22;33950;48.154;16.316;2023-07-20T03:27:55;23.10;76.70
48162;DHT22;33950;48.154;16.316;2023-07-20T03:30:41;23.10;76.60
48162;DHT22;33950;48.154;16.316;2023-07-20T03:33:27;23.20;76.50
48162;DHT22;33950;48.154;16.316;2023-07-20T03:36:13;23.10;76.50
48162;DHT22;33950;48.154;16.316;2023-07-20T03:38:59;23.10;76.50
48162;DHT22;33950;48.154;16.316;2023-07-20T03:41:45;23.10;76.60
48162;DHT22;33950;48.154;16.316;2023-07-20T03:44:32;23.10;76.80
48162;DHT22;33950;48.154;16.316;2023-07-20T03:47:18;23.00;77.00
48162;DHT22;33950;48.154;16.316;2023-07-20T03:52:51;23.00;77.40
48162;DHT22;33950;48.154;16.316;2023-07-20T03:55:37;23.10;77.50
48162;DHT22;33950;48.154;16.316;2023-07-20T03:58:23;23.10;77.50
48162;DHT22;33950;48.154;16.316;2023-07-20T04:01:10;23.20;77.50
48162;DHT22;33950;48.154;16.316;2023-07-20T04:03:56;23.20;77.70
48162;DHT22;33950;48.154;16.316;2023-07-20T04:06:43;23.20;77.90
48162;DHT22;33950;48.154;16.316;2023-07-20T04:09:31;23.10;78.20
48162;DHT22;33950;48.154;16.316;2023-07-20T04:12:17;23.20;78.40
48162;DHT22;33950;48.154;16.316;2023-07-20T04:15:03;23.20;78.40
48162;DHT22;33950;48.154;16.316;2023-07-20T04:17:50;23.20;78.40
48162;DHT22;33950;48.154;16.316;2023-07-20T04:20:36;23.30;79.00
48162;DHT22;33950;48.154;16.316;2023-07-20T04:23:22;23.30;79.10
48162;DHT22;33950;48.154;16.316;2023-07-20T04:26:08;23.40;78.70
48162;DHT22;33950;48.154;16.316;2023-07-20T04:28:54;23.40;78.70
48162;DHT22;33950;48.154;16.316;2023-07-20T04:31:40;23.50;78.70
48162;DHT22;33950;48.154;16.316;2023-07-20T04:34:27;23.50;79.30
48162;DHT22;33950;48.154;16.316;2023-07-20T04:37:13;23.60;78.90
48162;DHT22;33950;48.154;16.316;2023-07-20T04:39:59;23.70;78.80
48162;DHT22;33950;48.154;16.316;2023-07-20T04:42:45;23.70;79.40
48162;DHT22;33950;48.154;16.316;2023-07-20T04:45:31;23.40;79.90
48162;DHT22;33950;48.154;16.316;2023-07-20T04:48:17;23.30;80.40
48162;DHT22;33950;48.154;16.316;2023-07-20T04:51:04;23.20;80.70
48162;DHT22;33950;48.154;16.316;2023-07-20T04:53:50;23.30;80.60
48162;DHT22;33950;48.154;16.316;2023-07-20T04:56:37;23.10;81.10
48162;DHT22;33950;48.154;16.316;2023-07-20T04:59:22;23.00;81.40
48162;DHT22;33950;48.154;16.316;2023-07-20T05:02:08;23.00;81.60
48162;DHT22;33950;48.154;16.316;2023-07-20T05:07:42;23.00;81.60
48162;DHT22;33950;48.154;16.316;2023-07-20T05:10:28;23.10;81.40
48162;DHT22;33950;48.154;16.316;2023-07-20T05:21:32;23.10;81.60
48162;DHT22;33950;48.154;16.316;2023-07-20T05:24:19;23.10;81.50
48162;DHT22;33950;48.154;16.316;2023-07-20T05:32:38;23.00;81.70
48162;DHT22;33950;48.154;16.316;2023-07-20T05:41:00;22.80;82.20
48162;DHT22;33950;48.154;16.316;2023-07-20T05:43:49;22.90;81.80
48162;DHT22;33950;48.154;16.316;2023-07-20T05:46:35;23.00;81.90
48162;DHT22;33950;48.154;16.316;2023-07-20T05:49:21;23.10;81.60
48162;DHT22;33950;48.154;16.316;2023-07-20T05:57:41;23.10;81.20
48162;DHT22;33950;48.154;16.316;2023-07-20T06:17:08;23.40;79.20
48162;DHT22;33950;48.154;16.316;2023-07-20T06:25:26;23.10;79.80
48162;DHT22;33950;48.154;16.316;2023-07-20T06:30:59;23.20;80.10
48162;DHT22;33950;48.154;16.316;2023-07-20T06:50:24;23.40;79.50
48162;DHT22;33950;48.154;16.316;2023-07-20T06:55:56;23.50;79.60
48162;DHT22;33950;48.154;16.316;2023-07-20T07:12:36;23.30;79.80
48162;DHT22;33950;48.154;16.316;2023-07-20T07:20:54;23.50;79.30
48162;DHT22;33950;48.154;16.316;2023-07-20T07:37:35;23.90;79.10
48162;DHT22;33950;48.154;16.316;2023-07-20T07:45:54;24.10;79.20
48162;DHT22;33950;48.154;16.316;2023-07-20T07:48:41;24.20;79.50
48162;DHT22;33950;48.154;16.316;2023-07-20T07:51:27;24.30;79.30
48162;DHT22;33950;48.154;16.316;2023-07-20T07:54:15;24.50;79.20
48162;DHT22;33950;48.154;16.316;2023-07-20T07:57:01;24.20;78.10
48162;DHT22;33950;48.154;16.316;2023-07-20T07:59:46;24.20;78.50
48162;DHT22;33950;48.154;16.316;2023-07-20T08:02:32;24.20;78.60
48162;DHT22;33950;48.154;16.316;2023-07-20T08:05:18;24.40;78.60
48162;DHT22;33950;48.154;16.316;2023-07-20T08:08:04;24.40;78.50
48162;DHT22;33950;48.154;16.316;2023-07-20T08:10:54;24.30;78.50
48162;DHT22;33950;48.154;16.316;2023-07-20T08:13:40;24.30;78.70
48162;DHT22;33950;48.154;16.316;2023-07-20T08:16:27;24.20;78.70
48162;DHT22;33950;48.154;16.316;2023-07-20T08:21:59;24.30;78.70
48162;DHT22;33950;48.154;16.316;2023-07-20T08:27:33;24.50;78.60
48162;DHT22;33950;48.154;16.316;2023-07-20T08:30:20;24.60;79.10
48162;DHT22;33950;48.154;16.316;2023-07-20T08:33:06;24.70;78.70
48162;DHT22;33950;48.154;16.316;2023-07-20T08:35:52;24.80;77.50
48162;DHT22;33950;48.154;16.316;2023-07-20T08:38:38;24.80;78.00
48162;DHT22;33950;48.154;16.316;2023-07-20T08:41:24;24.70;77.30
48162;DHT22;33950;48.154;16.316;2023-07-20T08:44:11;24.70;77.10
48162;DHT22;33950;48.154;16.316;2023-07-20T08:46:58;24.90;76.90
48162;DHT22;33950;48.154;16.316;2023-07-20T08:49:44;25.00;75.60
48162;DHT22;33950;48.154;16.316;2023-07-20T08:52:33;24.90;75.70
48162;DHT22;33950;48.154;16.316;2023-07-20T08:55:20;24.80;75.00
48162;DHT22;33950;48.154;16.316;2023-07-20T08:58:08;24.70;75.30
48162;DHT22;33950;48.154;16.316;2023-07-20T09:00:56;24.80;74.60
48162;DHT22;33950;48.154;16.316;2023-07-20T09:03:45;24.80;75.10
48162;DHT22;33950;48.154;16.316;2023-07-20T09:06:31;24.80;75.30
48162;DHT22;33950;48.154;16.316;2023-07-20T09:09:17;24.80;75.20
48162;DHT22;33950;48.154;16.316;2023-07-20T09:12:03;24.70;75.20
48162;DHT22;33950;48.154;16.316;2023-07-20T09:14:49;24.80;75.30
48162;DHT22;33950;48.154;16.316;2023-07-20T09:17:37;24.80;75.00
48162;DHT22;33950;48.154;16.316;2023-07-20T09:20:25;24.80;74.80
48162;DHT22;33950;48.154;16.316;2023-07-20T09:23:11;24.90;73.70
48162;DHT22;33950;48.154;16.316;2023-07-20T09:25:57;24.90;72.40
48162;DHT22;33950;48.154;16.316;2023-07-20T09:28:48;24.90;72.90
48162;DHT22;33950;48.154;16.316;2023-07-20T09:31:34;25.00;70.70
48162;DHT22;33950;48.154;16.316;2023-07-20T09:34:21;25.00;70.00
48162;DHT22;33950;48.154;16.316;2023-07-20T09:37:07;24.80;71.10
48162;DHT22;33950;48.154;16.316;2023-07-20T09:39:53;24.70;71.50
48162;DHT22;33950;48.154;16.316;2023-07-20T09:42:39;24.70;71.80
48162;DHT22;33950;48.154;16.316;2023-07-20T09:45:27;24.80;72.10
48162;DHT22;33950;48.154;16.316;2023-07-20T09:48:14;24.80;72.10
48162;DHT22;33950;48.154;16.316;2023-07-20T09:51:01;24.80;71.60
48162;DHT22;33950;48.154;16.316;2023-07-20T09:53:47;24.80;72.30
48162;DHT22;33950;48.154;16.316;2023-07-20T09:56:34;24.80;72.20
48162;DHT22;33950;48.154;16.316;2023-07-20T09:59:20;24.80;72.70
48162;DHT22;33950;48.154;16.316;2023-07-20T10:02:09;24.90;73.70
48162;DHT22;33950;48.154;16.316;2023-07-20T10:04:57;24.90;72.60
48162;DHT22;33950;48.154;16.316;2023-07-20T10:07:48;24.90;73.30
48162;DHT22;33950;48.154;16.316;2023-07-20T10:10:34;24.80;72.60
48162;DHT22;33950;48.154;16.316;2023-07-20T10:13:21;24.90;72.60
48162;DHT22;33950;48.154;16.316;2023-07-20T10:16:11;24.90;72.60
48162;DHT22;33950;48.154;16.316;2023-07-20T10:18:59;25.10;73.00
48162;DHT22;33950;48.154;16.316;2023-07-20T10:21:47;25.30;71.80
48162;DHT22;33950;48.154;16.316;2023-07-20T10:24:34;25.40;72.00
48162;DHT22;33950;48.154;16.316;2023-07-20T10:27:21;25.60;71.10
48162;DHT22;33950;48.154;16.316;2023-07-20T10:30:07;25.60;70.80
48162;DHT22;33950;48.154;16.316;2023-07-20T10:32:53;25.60;70.80
48162;DHT22;33950;48.154;16.316;2023-07-20T10:35:51;25.70;70.20
48162;DHT22;33950;48.154;16.316;2023-07-20T10:38:38;25.70;70.80
48162;DHT22;33950;48.154;16.316;2023-07-20T10:41:28;25.80;70.60
48162;DHT22;33950;48.154;16.316;2023-07-20T10:44:15;25.60;70.70
48162;DHT22;33950;48.154;16.316;2023-07-20T10:47:08;25.70;70.70
48162;DHT22;33950;48.154;16.316;2023-07-20T10:49:57;25.80;71.30
48162;DHT22;33950;48.154;16.316;2023-07-20T10:52:43;25.80;71.70
48162;DHT22;33950;48.154;16.316;2023-07-20T10:55:29;26.20;69.60
48162;DHT22;33950;48.154;16.316;2023-07-20T10:58:16;26.20;70.30
48162;DHT22;33950;48.154;16.316;2023-07-20T11:01:04;26.20;69.30
48162;DHT22;33950;48.154;16.316;2023-07-20T11:03:51;26.10;69.30
48162;DHT22;33950;48.154;16.316;2023-07-20T11:06:37;26.20;68.70
48162;DHT22;33950;48.154;16.316;2023-07-20T11:09:24;26.30;69.10
48162;DHT22;33950;48.154;16.316;2023-07-20T11:12:11;26.80;68.60
48162;DHT22;33950;48.154;16.316;2023-07-20T11:14:59;26.80;68.90
48162;DHT22;33950;48.154;16.316;2023-07-20T11:17:45;27.10;68.90
48162;DHT22;33950;48.154;16.316;2023-07-20T11:20:31;27.00;66.90
48162;DHT22;33950;48.154;16.316;2023-07-20T11:23:17;26.70;68.00
48162;DHT22;33950;48.154;16.316;2023-07-20T11:26:03;27.10;67.60
48162;DHT22;33950;48.154;16.316;2023-07-20T11:28:49;27.10;66.70
48162;DHT22;33950;48.154;16.316;2023-07-20T11:31:37;27.30;66.80
48162;DHT22;33950;48.154;16.316;2023-07-20T11:34:23;27.40;67.10
48162;DHT22;33950;48.154;16.316;2023-07-20T11:37:09;27.50;66.10
48162;DHT22;33950;48.154;16.316;2023-07-20T11:39:55;27.50;66.80
48162;DHT22;33950;48.154;16.316;2023-07-20T11:42:41;27.50;67.20
48162;DHT22;33950;48.154;16.316;2023-07-20T11:45:28;28.20;66.10
48162;DHT22;33950;48.154;16.316;2023-07-20T11:48:19;28.20;66.70
48162;DHT22;33950;48.154;16.316;2023-07-20T11:51:05;28.30;65.90
48162;DHT22;33950;48.154;16.316;2023-07-20T11:53:51;28.50;65.70
48162;DHT22;33950;48.154;16.316;2023-07-20T11:56:41;28.30;64.70
48162;DHT22;33950;48.154;16.316;2023-07-20T11:59:26;28.20;64.50
48162;DHT22;33950;48.154;16.316;2023-07-20T12:02:12;27.30;65.00
48162;DHT22;33950;48.154;16.316;2023-07-20T12:05:00;27.20;65.20
48162;DHT22;33950;48.154;16.316;2023-07-20T12:07:46;27.20;65.40
48162;DHT22;33950;48.154;16.316;2023-07-20T12:10:33;27.10;65.50
48162;DHT22;33950;48.154;16.316;2023-07-20T12:13:19;27.50;65.90
48162;DHT22;33950;48.154;16.316;2023-07-20T12:16:12;28.20;65.10
48162;DHT22;33950;48.154;16.316;2023-07-20T12:18:59;28.60;64.40
48162;DHT22;33950;48.154;16.316;2023-07-20T12:21:46;28.70;64.30
48162;DHT22;33950;48.154;16.316;2023-07-20T12:24:32;28.80;64.20
48162;DHT22;33950;48.154;16.316;2023-07-20T12:27:18;28.50;63.70
48162;DHT22;33950;48.154;16.316;2023-07-20T12:30:05;28.50;64.30
48162;DHT22;33950;48.154;16.316;2023-07-20T12:32:51;28.60;63.20
48162;DHT22;33950;48.154;16.316;2023-07-20T12:35:37;28.60;62.70
48162;DHT22;33950;48.154;16.316;2023-07-20T12:38:24;28.60;62.70
48162;DHT22;33950;48.154;16.316;2023-07-20T12:41:11;28.50;62.50
48162;DHT22;33950;48.154;16.316;2023-07-20T12:44:00;28.50;63.10
48162;DHT22;33950;48.154;16.316;2023-07-20T12:46:46;28.60;61.60
48162;DHT22;33950;48.154;16.316;2023-07-20T12:49:32;28.60;62.10
48162;DHT22;33950;48.154;16.316;2023-07-20T12:52:18;28.70;62.00
48162;DHT22;33950;48.154;16.316;2023-07-20T12:55:06;28.70;62.40
48162;DHT22;33950;48.154;16.316;2023-07-20T12:57:52;31.20;63.60
48162;DHT22;33950;48.154;16.316;2023-07-20T13:00:38;28.90;61.70
48162;DHT22;33950;48.154;16.316;2023-07-20T13:03:24;29.20;62.10
48162;DHT22;33950;48.154;16.316;2023-07-20T13:06:10;29.60;61.10
48162;DHT22;33950;48.154;16.316;2023-07-20T13:08:55;29.70;61.30
48162;DHT22;33950;48.154;16.316;2023-07-20T13:11:45;29.90;61.40
48162;DHT22;33950;48.154;16.316;2023-07-20T13:14:31;29.90;61.40
48162;DHT22;33950;48.154;16.316;2023-07-20T13:17:17;29.40;60.70
48162;DHT22;33950;48.154;16.316;2023-07-20T13:20:04;29.20;61.40
48162;DHT22;33950;48.154;16.316;2023-07-20T13:22:50;29.20;60.40
48162;DHT22;33950;48.154;16.316;2023-07-20T13:25:36;28.90;60.90
48162;DHT22;33950;48.154;16.316;2023-07-20T13:28:24;28.90;61.30
48162;DHT22;33950;48.154;16.316;2023-07-20T13:31:10;29.10;61.40
48162;DHT22;33950;48.154;16.316;2023-07-20T13:33:56;29.30;61.30
48162;DHT22;33950;48.154;16.316;2023-07-20T13:36:42;29.50;61.00
48162;DHT22;33950;48.154;16.316;2023-07-20T13:39:28;29.60;61.60
48162;DHT22;33950;48.154;16.316;2023-07-20T13:42:14;29.60;60.70
48162;DHT22;33950;48.154;16.316;2023-07-20T13:45:01;29.60;60.10
48162;DHT22;33950;48.154;16.316;2023-07-20T13:47:47;29.50;59.40
48162;DHT22;33950;48.154;16.316;2023-07-20T13:50:33;29.30;59.80
48162;DHT22;33950;48.154;16.316;2023-07-20T13:53:19;29.20;61.10
48162;DHT22;33950;48.154;16.316;2023-07-20T13:56:05;29.40;59.30
48162;DHT22;33950;48.154;16.316;2023-07-20T13:58:51;29.40;60.00
48162;DHT22;33950;48.154;16.316;2023-07-20T14:01:38;29.30;59.90
48162;DHT22;33950;48.154;16.316;2023-07-20T14:04:24;29.20;60.40
48162;DHT22;33950;48.154;16.316;2023-07-20T14:07:10;29.50;59.00
48162;DHT22;33950;48.154;16.316;2023-07-20T14:09:56;29.20;59.00
48162;DHT22;33950;48.154;16.316;2023-07-20T14:12:42;29.30;59.50
48162;DHT22;33950;48.154;16.316;2023-07-20T14:15:28;29.20;59.00
48162;DHT22;33950;48.154;16.316;2023-07-20T14:18:15;29.40;59.50
48162;DHT22;33950;48.154;16.316;2023-07-20T14:21:01;29.40;60.10
48162;DHT22;33950;48.154;16.316;2023-07-20T14:23:49;29.40;59.50
48162;DHT22;33950;48.154;16.316;2023-07-20T14:26:39;29.20;59.50
48162;DHT22;33950;48.154;16.316;2023-07-20T14:29:24;29.10;59.30
48162;DHT22;33950;48.154;16.316;2023-07-20T14:32:10;29.40;59.90
48162;DHT22;33950;48.154;16.316;2023-07-20T14:34:58;29.30;60.40
48162;DHT22;33950;48.154;16.316;2023-07-20T14:37:44;29.30;60.10
48162;DHT22;33950;48.154;16.316;2023-07-20T14:40:32;29.30;61.00
48162;DHT22;33950;48.154;16.316;2023-07-20T14:43:18;29.20;60.40
48162;DHT22;33950;48.154;16.316;2023-07-20T14:46:04;29.20;60.10
48162;DHT22;33950;48.154;16.316;2023-07-20T14:48:50;29.20;60.60
48162;DHT22;33950;48.154;16.316;2023-07-20T14:51:38;29.10;60.40
48162;DHT22;33950;48.154;16.316;2023-07-20T14:54:29;29.00;59.70
48162;DHT22;33950;48.154;16.316;2023-07-20T14:57:14;29.10;60.50
48162;DHT22;33950;48.154;16.316;2023-07-20T15:00:01;29.10;60.80
48162;DHT22;33950;48.154;16.316;2023-07-20T15:02:49;29.20;60.30
48162;DHT22;33950;48.154;16.316;2023-07-20T15:05:35;29.30;60.60
48162;DHT22;33950;48.154;16.316;2023-07-20T15:08:23;29.30;60.90
48162;DHT22;33950;48.154;16.316;2023-07-20T15:11:09;29.40;60.00
48162;DHT22;33950;48.154;16.316;2023-07-20T15:13:55;29.10;60.20
48162;DHT22;33950;48.154;16.316;2023-07-20T15:16:42;28.90;60.60
48162;DHT22;33950;48.154;16.316;2023-07-20T15:19:28;28.80;60.50
48162;DHT22;33950;48.154;16.316;2023-07-20T15:22:14;28.90;61.50
48162;DHT22;33950;48.154;16.316;2023-07-20T15:25:01;28.90;60.90
48162;DHT22;33950;48.154;16.316;2023-07-20T15:27:47;29.10;60.70
48162;DHT22;33950;48.154;16.316;2023-07-20T15:30:33;29.20;60.30
48162;DHT22;33950;48.154;16.316;2023-07-20T15:33:19;29.30;60.90
48162;DHT22;33950;48.154;16.316;2023-07-20T15:36:05;29.60;59.90
48162;DHT22;33950;48.154;16.316;2023-07-20T15:38:52;29.60;60.50
48162;DHT22;33950;48.154;16.316;2023-07-20T15:41:39;29.50;60.60
48162;DHT22;33950;48.154;16.316;2023-07-20T15:44:25;29.40;60.30
48162;DHT22;33950;48.154;16.316;2023-07-20T15:47:11;29.20;59.40
48162;DHT22;33950;48.154;16.316;2023-07-20T15:49:57;29.30;60.30
48162;DHT22;33950;48.154;16.316;2023-07-20T15:52:43;29.30;60.20
48162;DHT22;33950;48.154;16.316;2023-07-20T15:55:29;29.20;59.70
48162;DHT22;33950;48.154;16.316;2023-07-20T15:58:16;29.20;60.20
48162;DHT22;33950;48.154;16.316;2023-07-20T16:01:02;29.10;59.90
48162;DHT22;33950;48.154;16.316;2023-07-20T16:03:48;28.90;60.10
48162;DHT22;33950;48.154;16.316;2023-07-20T16:06:34;28.80;60.30
48162;DHT22;33950;48.154;16.316;2023-07-20T16:09:21;28.80;60.50
48162;DHT22;33950;48.154;16.316;2023-07-20T16:12:07;29.10;60.10
48162;DHT22;33950;48.154;16.316;2023-07-20T16:14:55;29.10;59.90
48162;DHT22;33950;48.154;16.316;2023-07-20T16:17:40;28.90;60.00
48162;DHT22;33950;48.154;16.316;2023-07-20T16:20:26;28.90;59.80
48162;DHT22;33950;48.154;16.316;2023-07-20T16:23:13;28.90;60.30
48162;DHT22;33950;48.154;16.316;2023-07-20T16:25:59;29.00;60.30
48162;DHT22;33950;48.154;16.316;2023-07-20T16:28:45;29.00;59.60
48162;DHT22;33950;48.154;16.316;2023-07-20T16:31:32;29.00;60.00
48162;DHT22;33950;48.154;16.316;2023-07-20T16:34:18;29.00;60.00
48162;DHT22;33950;48.154;16.316;2023-07-20T16:37:04;29.10;59.50
48162;DHT22;33950;48.154;16.316;2023-07-20T16:39:50;29.00;59.50
48162;DHT22;33950;48.154;16.316;2023-07-20T16:42:36;29.00;59.70
48162;DHT22;33950;48.154;16.316;2023-07-20T16:45:22;28.70;59.80
48162;DHT22;33950;48.154;16.316;2023-07-20T16:48:09;28.70;60.20
48162;DHT22;33950;48.154;16.316;2023-07-20T16:50:55;28.60;60.20
48162;DHT22;33950;48.154;16.316;2023-07-20T16:53:41;28.40;60.80
48162;DHT22;33950;48.154;16.316;2023-07-20T16:56:27;28.20;60.50
48162;DHT22;33950;48.154;16.316;2023-07-20T16:59:13;28.20;60.50
48162;DHT22;33950;48.154;16.316;2023-07-20T17:01:59;28.10;61.30
48162;DHT22;33950;48.154;16.316;2023-07-20T17:04:48;28.00;61.30
48162;DHT22;33950;48.154;16.316;2023-07-20T17:07:34;27.80;60.80
48162;DHT22;33950;48.154;16.316;2023-07-20T17:10:20;27.70;61.30
48162;DHT22;33950;48.154;16.316;2023-07-20T17:13:05;27.60;61.20
48162;DHT22;33950;48.154;16.316;2023-07-20T17:15:55;27.60;61.40
48162;DHT22;33950;48.154;16.316;2023-07-20T17:18:42;27.60;61.80
48162;DHT22;33950;48.154;16.316;2023-07-20T17:21:29;27.60;62.10
48162;DHT22;33950;48.154;16.316;2023-07-20T17:24:17;27.50;61.70
48162;DHT22;33950;48.154;16.316;2023-07-20T17:27:04;27.40;61.50
48162;DHT22;33950;48.154;16.316;2023-07-20T17:29:50;27.30;62.30
48162;DHT22;33950;48.154;16.316;2023-07-20T17:32:35;27.30;62.30
48162;DHT22;33950;48.154;16.316;2023-07-20T17:35:21;27.20;62.10
48162;DHT22;33950;48.154;16.316;2023-07-20T17:38:09;27.20;62.50
48162;DHT22;33950;48.154;16.316;2023-07-20T17:40:55;27.10;62.20
48162;DHT22;33950;48.154;16.316;2023-07-20T17:43:41;27.20;62.70
48162;DHT22;33950;48.154;16.316;2023-07-20T17:46:26;27.00;62.40
48162;DHT22;33950;48.154;16.316;2023-07-20T17:49:12;27.00;63.20
48162;DHT22;33950;48.154;16.316;2023-07-20T17:51:58;26.90;63.00
48162;DHT22;33950;48.154;16.316;2023-07-20T17:54:46;26.90;62.90
48162;DHT22;33950;48.154;16.316;2023-07-20T17:57:32;26.90;62.90
48162;DHT22;33950;48.154;16.316;2023-07-20T18:00:18;26.80;63.90
48162;DHT22;33950;48.154;16.316;2023-07-20T18:03:04;26.80;63.20
48162;DHT22;33950;48.154;16.316;2023-07-20T18:05:49;26.70;63.00
48162;DHT22;33950;48.154;16.316;2023-07-20T18:08:36;26.70;63.50
48162;DHT22;33950;48.154;16.316;2023-07-20T18:11:24;26.60;63.60
48162;DHT22;33950;48.154;16.316;2023-07-20T18:14:10;26.60;63.50
48162;DHT22;33950;48.154;16.316;2023-07-20T18:16:56;26.40;62.80
48162;DHT22;33950;48.154;16.316;2023-07-20T18:19:41;26.40;63.50
48162;DHT22;33950;48.154;16.316;2023-07-20T18:22:29;26.40;63.80
48162;DHT22;33950;48.154;16.316;2023-07-20T18:25:15;26.30;63.50
48162;DHT22;33950;48.154;16.316;2023-07-20T18:28:02;26.30;63.70
48162;DHT22;33950;48.154;16.316;2023-07-20T18:30:49;26.30;63.90
48162;DHT22;33950;48.154;16.316;2023-07-20T18:33:35;26.20;64.00
48162;DHT22;33950;48.154;16.316;2023-07-20T18:36:21;26.10;63.60
48162;DHT22;33950;48.154;16.316;2023-07-20T18:39:07;26.10;64.20
48162;DHT22;33950;48.154;16.316;2023-07-20T18:41:53;26.00;63.70
48162;DHT22;33950;48.154;16.316;2023-07-20T18:44:40;26.00;64.10
48162;DHT22;33950;48.154;16.316;2023-07-20T18:47:27;26.00;64.00
48162;DHT22;33950;48.154;16.316;2023-07-20T18:50:13;26.00;64.00
48162;DHT22;33950;48.154;16.316;2023-07-20T18:52:59;26.00;64.40
48162;DHT22;33950;48.154;16.316;2023-07-20T18:55:45;25.80;64.10
48162;DHT22;33950;48.154;16.316;2023-07-20T18:58:31;25.80;64.10
48162;DHT22;33950;48.154;16.316;2023-07-20T19:01:19;25.80;64.30
48162;DHT22;33950;48.154;16.316;2023-07-20T19:04:04;25.70;63.90
48162;DHT22;33950;48.154;16.316;2023-07-20T19:09:37;25.70;63.90
48162;DHT22;33950;48.154;16.316;2023-07-20T19:12:22;25.60;64.20
48162;DHT22;33950;48.154;16.316;2023-07-20T19:15:09;25.60;64.40
48162;DHT22;33950;48.154;16.316;2023-07-20T19:17:57;25.60;64.40
48162;DHT22;33950;48.154;16.316;2023-07-20T19:20:42;25.50;64.40
48162;DHT22;33950;48.154;16.316;2023-07-20T19:23:29;25.50;64.60
48162;DHT22;33950;48.154;16.316;2023-07-20T19:26:15;25.50;64.70
48162;DHT22;33950;48.154;16.316;2023-07-20T19:29:02;25.50;64.60
48162;DHT22;33950;48.154;16.316;2023-07-20T19:42:55;25.50;64.90
48162;DHT22;33950;48.154;16.316;2023-07-20T19:51:14;25.30;65.90
48162;DHT22;33950;48.154;16.316;2023-07-20T20:02:21;25.10;66.00
48162;DHT22;33950;48.154;16.316;2023-07-20T20:05:07;25.00;66.10
48162;DHT22;33950;48.154;16.316;2023-07-20T20:07:54;25.00;66.10
48162;DHT22;33950;48.154;16.316;2023-07-20T20:10:39;25.00;66.10
48162;DHT22;33950;48.154;16.316;2023-07-20T20:30:06;24.60;66.70
48162;DHT22;33950;48.154;16.316;2023-07-20T20:32:52;24.60;66.80
48162;DHT22;33950;48.154;16.316;2023-07-20T20:57:51;24.20;67.70
48162;DHT22;33950;48.154;16.316;2023-07-20T21:03:27;24.20;67.80